4NK5 weather

Harvs Airport
Macedon, New York, United States

Public forecast

Using degrees Fahrenheit for public forecast. Weather courtesy of forecast.io.

METAR (pilot weather report)

Closest report is Greater Rochester International Airport, 13.4 nm (24.8 km) W. Retrieved 2019/05/25 05:54 UTC (28 minutes ago):

KROC 250554Z 00000KT 10SM SCT180 13/09 A3014 RMK AO2 SLP210 T01330094 10200 20128 58004

TAF (pilot weather forecast)

Closest forecast is Greater Rochester International Airport, 13.4 nm (24.8 km) W. Retrieved 2019/05/25 06:42 UTC (0 seconds ago):

TAF KROC 250539Z 2506/2606 15005KT P6SM BKN150 FM251300 18008KT P6SM VCTS BKN060CB FM251800 19012G20KT P6SM -SHRA VCTS OVC050CB FM252100 21012G20KT 6SM -TSRA OVC040CB FM260000 23010KT P6SM BKN040